sensor_id;sensor_type;location;lat;lon;timestamp;P1;durP1;ratioP1;P2;durP2;ratioP2
65924;SDS011;66010;52.084;5.412;2023-09-30T00:02:36;10.18;;;2.80;;
65924;SDS011;66010;52.084;5.412;2023-09-30T00:05:02;12.25;;;3.47;;
65924;SDS011;66010;52.084;5.412;2023-09-30T00:07:30;9.13;;;3.00;;
65924;SDS011;66010;52.084;5.412;2023-09-30T00:09:57;9.90;;;3.20;;
65924;SDS011;66010;52.084;5.412;2023-09-30T00:12:24;14.23;;;3.05;;
65924;SDS011;66010;52.084;5.412;2023-09-30T00:14:51;13.35;;;3.33;;
65924;SDS011;66010;52.084;5.412;2023-09-30T00:17:17;10.15;;;2.75;;
65924;SDS011;66010;52.084;5.412;2023-09-30T00:19:44;11.52;;;3.47;;
65924;SDS011;66010;52.084;5.412;2023-09-30T00:22:11;10.90;;;3.22;;
65924;SDS011;66010;52.084;5.412;2023-09-30T00:24:37;9.73;;;2.70;;
65924;SDS011;66010;52.084;5.412;2023-09-30T00:27:04;8.73;;;2.90;;
65924;SDS011;66010;52.084;5.412;2023-09-30T00:29:31;10.90;;;3.38;;
65924;SDS011;66010;52.084;5.412;2023-09-30T00:31:57;8.40;;;2.83;;
65924;SDS011;66010;52.084;5.412;2023-09-30T00:34:24;10.43;;;3.10;;
65924;SDS011;66010;52.084;5.412;2023-09-30T00:36:51;11.68;;;3.50;;
65924;SDS011;66010;52.084;5.412;2023-09-30T00:39:18;8.68;;;2.90;;
65924;SDS011;66010;52.084;5.412;2023-09-30T00:41:44;10.93;;;2.95;;
65924;SDS011;66010;52.084;5.412;2023-09-30T00:44:11;8.63;;;3.03;;
65924;SDS011;66010;52.084;5.412;2023-09-30T00:46:38;11.02;;;2.80;;
65924;SDS011;66010;52.084;5.412;2023-09-30T00:49:07;10.63;;;3.45;;
65924;SDS011;66010;52.084;5.412;2023-09-30T00:51:34;8.65;;;3.17;;
65924;SDS011;66010;52.084;5.412;2023-09-30T00:54:01;10.60;;;3.17;;
65924;SDS011;66010;52.084;5.412;2023-09-30T00:56:28;11.13;;;3.80;;
65924;SDS011;66010;52.084;5.412;2023-09-30T00:58:57;12.27;;;3.70;;
65924;SDS011;66010;52.084;5.412;2023-09-30T01:01:24;11.60;;;4.10;;
65924;SDS011;66010;52.084;5.412;2023-09-30T01:03:51;10.70;;;3.35;;
65924;SDS011;66010;52.084;5.412;2023-09-30T01:06:18;9.02;;;3.50;;
65924;SDS011;66010;52.084;5.412;2023-09-30T01:08:45;13.20;;;4.10;;
65924;SDS011;66010;52.084;5.412;2023-09-30T01:11:11;10.85;;;4.35;;
65924;SDS011;66010;52.084;5.412;2023-09-30T01:13:38;9.18;;;3.33;;
65924;SDS011;66010;52.084;5.412;2023-09-30T01:16:05;9.93;;;2.92;;
65924;SDS011;66010;52.084;5.412;2023-09-30T01:18:32;10.05;;;3.42;;
65924;SDS011;66010;52.084;5.412;2023-09-30T01:21:03;11.55;;;3.65;;
65924;SDS011;66010;52.084;5.412;2023-09-30T01:23:30;13.65;;;4.68;;
65924;SDS011;66010;52.084;5.412;2023-09-30T01:25:57;11.13;;;3.63;;
65924;SDS011;66010;52.084;5.412;2023-09-30T01:28:25;10.57;;;3.17;;
65924;SDS011;66010;52.084;5.412;2023-09-30T01:30:53;13.70;;;4.22;;
65924;SDS011;66010;52.084;5.412;2023-09-30T01:33:19;9.95;;;3.90;;
65924;SDS011;66010;52.084;5.412;2023-09-30T01:35:46;9.50;;;3.40;;
65924;SDS011;66010;52.084;5.412;2023-09-30T01:38:12;9.25;;;3.40;;
65924;SDS011;66010;52.084;5.412;2023-09-30T01:40:39;10.13;;;3.47;;
65924;SDS011;66010;52.084;5.412;2023-09-30T01:43:05;9.95;;;2.90;;
65924;SDS011;66010;52.084;5.412;2023-09-30T01:45:32;11.48;;;3.50;;
65924;SDS011;66010;52.084;5.412;2023-09-30T01:47:59;9.48;;;3.40;;
65924;SDS011;66010;52.084;5.412;2023-09-30T01:50:25;9.77;;;3.33;;
65924;SDS011;66010;52.084;5.412;2023-09-30T01:52:52;10.25;;;3.50;;
65924;SDS011;66010;52.084;5.412;2023-09-30T01:55:19;9.57;;;3.25;;
65924;SDS011;66010;52.084;5.412;2023-09-30T01:57:45;8.45;;;2.75;;
65924;SDS011;66010;52.084;5.412;2023-09-30T02:00:12;10.63;;;3.33;;
65924;SDS011;66010;52.084;5.412;2023-09-30T02:02:41;10.75;;;3.30;;
65924;SDS011;66010;52.084;5.412;2023-09-30T02:05:08;10.30;;;2.67;;
65924;SDS011;66010;52.084;5.412;2023-09-30T02:07:35;8.32;;;2.85;;
65924;SDS011;66010;52.084;5.412;2023-09-30T02:10:02;10.60;;;3.38;;
65924;SDS011;66010;52.084;5.412;2023-09-30T02:12:29;10.02;;;3.22;;
65924;SDS011;66010;52.084;5.412;2023-09-30T02:14:55;9.80;;;3.00;;
65924;SDS011;66010;52.084;5.412;2023-09-30T02:17:23;10.43;;;3.25;;
65924;SDS011;66010;52.084;5.412;2023-09-30T02:19:49;10.55;;;4.00;;
65924;SDS011;66010;52.084;5.412;2023-09-30T02:22:16;11.45;;;3.72;;
65924;SDS011;66010;52.084;5.412;2023-09-30T02:24:42;9.60;;;3.60;;
65924;SDS011;66010;52.084;5.412;2023-09-30T02:27:09;9.52;;;3.50;;
65924;SDS011;66010;52.084;5.412;2023-09-30T02:29:35;11.10;;;4.03;;
65924;SDS011;66010;52.084;5.412;2023-09-30T02:32:02;8.93;;;3.58;;
65924;SDS011;66010;52.084;5.412;2023-09-30T02:34:30;12.23;;;4.05;;
65924;SDS011;66010;52.084;5.412;2023-09-30T02:39:23;9.45;;;3.47;;
65924;SDS011;66010;52.084;5.412;2023-09-30T02:41:51;12.18;;;3.65;;
65924;SDS011;66010;52.084;5.412;2023-09-30T02:44:19;10.75;;;3.92;;
65924;SDS011;66010;52.084;5.412;2023-09-30T02:46:45;10.90;;;4.93;;
65924;SDS011;66010;52.084;5.412;2023-09-30T02:49:12;10.10;;;4.00;;
65924;SDS011;66010;52.084;5.412;2023-09-30T02:51:38;10.07;;;4.25;;
65924;SDS011;66010;52.084;5.412;2023-09-30T02:54:05;9.73;;;3.78;;
65924;SDS011;66010;52.084;5.412;2023-09-30T02:56:32;9.98;;;4.05;;
65924;SDS011;66010;52.084;5.412;2023-09-30T02:58:58;11.40;;;4.80;;
65924;SDS011;66010;52.084;5.412;2023-09-30T03:01:26;9.00;;;3.65;;
65924;SDS011;66010;52.084;5.412;2023-09-30T03:03:53;10.77;;;4.40;;
65924;SDS011;66010;52.084;5.412;2023-09-30T03:06:20;11.10;;;4.55;;
65924;SDS011;66010;52.084;5.412;2023-09-30T03:08:46;10.90;;;4.55;;
65924;SDS011;66010;52.084;5.412;2023-09-30T03:11:13;9.25;;;3.50;;
65924;SDS011;66010;52.084;5.412;2023-09-30T03:13:39;11.02;;;4.65;;
65924;SDS011;66010;52.084;5.412;2023-09-30T03:16:09;11.10;;;4.43;;
65924;SDS011;66010;52.084;5.412;2023-09-30T03:18:35;9.25;;;4.30;;
65924;SDS011;66010;52.084;5.412;2023-09-30T03:23:39;10.50;;;4.25;;
65924;SDS011;66010;52.084;5.412;2023-09-30T03:26:06;10.57;;;4.70;;
65924;SDS011;66010;52.084;5.412;2023-09-30T03:28:36;12.68;;;5.50;;
65924;SDS011;66010;52.084;5.412;2023-09-30T03:31:04;11.70;;;5.15;;
65924;SDS011;66010;52.084;5.412;2023-09-30T03:33:32;9.63;;;3.83;;
65924;SDS011;66010;52.084;5.412;2023-09-30T03:35:59;12.15;;;5.28;;
65924;SDS011;66010;52.084;5.412;2023-09-30T03:38:26;12.13;;;4.45;;
65924;SDS011;66010;52.084;5.412;2023-09-30T03:40:52;12.68;;;5.20;;
65924;SDS011;66010;52.084;5.412;2023-09-30T03:43:21;11.68;;;5.25;;
65924;SDS011;66010;52.084;5.412;2023-09-30T03:45:47;12.35;;;4.38;;
65924;SDS011;66010;52.084;5.412;2023-09-30T03:48:14;12.35;;;5.15;;
65924;SDS011;66010;52.084;5.412;2023-09-30T03:50:40;10.93;;;4.63;;
65924;SDS011;66010;52.084;5.412;2023-09-30T03:53:07;13.30;;;5.93;;
65924;SDS011;66010;52.084;5.412;2023-09-30T03:55:34;11.07;;;4.43;;
65924;SDS011;66010;52.084;5.412;2023-09-30T03:58:01;13.15;;;4.20;;
65924;SDS011;66010;52.084;5.412;2023-09-30T04:00:29;10.57;;;4.10;;
65924;SDS011;66010;52.084;5.412;2023-09-30T04:02:55;11.95;;;5.00;;
65924;SDS011;66010;52.084;5.412;2023-09-30T04:05:25;11.63;;;4.72;;
65924;SDS011;66010;52.084;5.412;2023-09-30T04:07:55;12.13;;;4.10;;
65924;SDS011;66010;52.084;5.412;2023-09-30T04:10:22;10.98;;;3.97;;
65924;SDS011;66010;52.084;5.412;2023-09-30T04:12:49;11.60;;;4.90;;
65924;SDS011;66010;52.084;5.412;2023-09-30T04:15:16;11.00;;;4.30;;
65924;SDS011;66010;52.084;5.412;2023-09-30T04:17:42;10.88;;;4.13;;
65924;SDS011;66010;52.084;5.412;2023-09-30T04:20:09;9.82;;;4.25;;
65924;SDS011;66010;52.084;5.412;2023-09-30T04:22:37;10.73;;;5.13;;
65924;SDS011;66010;52.084;5.412;2023-09-30T04:25:04;12.48;;;5.60;;
65924;SDS011;66010;52.084;5.412;2023-09-30T04:27:38;11.77;;;5.32;;
65924;SDS011;66010;52.084;5.412;2023-09-30T04:30:05;11.20;;;4.68;;
65924;SDS011;66010;52.084;5.412;2023-09-30T04:32:38;12.15;;;5.15;;
65924;SDS011;66010;52.084;5.412;2023-09-30T04:35:05;11.07;;;4.50;;
65924;SDS011;66010;52.084;5.412;2023-09-30T04:37:31;13.63;;;6.05;;
65924;SDS011;66010;52.084;5.412;2023-09-30T04:39:58;12.88;;;5.68;;
65924;SDS011;66010;52.084;5.412;2023-09-30T04:42:25;12.35;;;6.05;;
65924;SDS011;66010;52.084;5.412;2023-09-30T04:44:52;11.15;;;5.55;;
65924;SDS011;66010;52.084;5.412;2023-09-30T04:47:19;11.65;;;4.80;;
65924;SDS011;66010;52.084;5.412;2023-09-30T04:49:45;11.93;;;5.43;;
65924;SDS011;66010;52.084;5.412;2023-09-30T04:52:12;12.07;;;4.95;;
65924;SDS011;66010;52.084;5.412;2023-09-30T04:54:38;11.23;;;5.40;;
65924;SDS011;66010;52.084;5.412;2023-09-30T04:57:05;11.95;;;4.43;;
65924;SDS011;66010;52.084;5.412;2023-09-30T04:59:33;13.27;;;5.82;;
65924;SDS011;66010;52.084;5.412;2023-09-30T05:02:00;10.27;;;4.53;;
65924;SDS011;66010;52.084;5.412;2023-09-30T05:04:27;11.18;;;5.40;;
65924;SDS011;66010;52.084;5.412;2023-09-30T05:06:53;12.55;;;4.97;;
65924;SDS011;66010;52.084;5.412;2023-09-30T05:09:20;12.60;;;4.93;;
65924;SDS011;66010;52.084;5.412;2023-09-30T05:11:47;11.60;;;5.07;;
65924;SDS011;66010;52.084;5.412;2023-09-30T05:14:13;16.30;;;7.80;;
65924;SDS011;66010;52.084;5.412;2023-09-30T05:16:40;13.90;;;6.30;;
65924;SDS011;66010;52.084;5.412;2023-09-30T05:19:10;13.43;;;5.38;;
65924;SDS011;66010;52.084;5.412;2023-09-30T05:21:36;12.43;;;4.97;;
65924;SDS011;66010;52.084;5.412;2023-09-30T05:24:03;10.80;;;4.07;;
65924;SDS011;66010;52.084;5.412;2023-09-30T05:26:31;11.73;;;4.93;;
65924;SDS011;66010;52.084;5.412;2023-09-30T05:28:59;10.82;;;4.55;;
65924;SDS011;66010;52.084;5.412;2023-09-30T05:31:25;10.70;;;4.70;;
65924;SDS011;66010;52.084;5.412;2023-09-30T05:33:56;11.85;;;4.75;;
65924;SDS011;66010;52.084;5.412;2023-09-30T05:36:23;12.95;;;5.30;;
65924;SDS011;66010;52.084;5.412;2023-09-30T05:41:17;12.02;;;5.57;;
65924;SDS011;66010;52.084;5.412;2023-09-30T05:43:44;12.35;;;5.80;;
65924;SDS011;66010;52.084;5.412;2023-09-30T05:46:10;11.93;;;6.10;;
65924;SDS011;66010;52.084;5.412;2023-09-30T05:48:37;14.15;;;6.00;;
65924;SDS011;66010;52.084;5.412;2023-09-30T05:51:13;14.98;;;6.35;;
65924;SDS011;66010;52.084;5.412;2023-09-30T05:53:41;10.07;;;4.45;;
65924;SDS011;66010;52.084;5.412;2023-09-30T05:56:08;12.65;;;6.13;;
65924;SDS011;66010;52.084;5.412;2023-09-30T05:58:37;12.85;;;5.55;;
65924;SDS011;66010;52.084;5.412;2023-09-30T06:01:10;14.38;;;6.20;;
65924;SDS011;66010;52.084;5.412;2023-09-30T06:03:46;12.50;;;6.13;;
65924;SDS011;66010;52.084;5.412;2023-09-30T06:06:13;12.65;;;6.20;;
65924;SDS011;66010;52.084;5.412;2023-09-30T06:08:42;12.82;;;5.97;;
65924;SDS011;66010;52.084;5.412;2023-09-30T06:11:18;13.35;;;5.70;;
65924;SDS011;66010;52.084;5.412;2023-09-30T06:13:45;12.70;;;6.43;;
65924;SDS011;66010;52.084;5.412;2023-09-30T06:16:24;15.32;;;6.95;;
65924;SDS011;66010;52.084;5.412;2023-09-30T06:18:53;13.07;;;6.60;;
65924;SDS011;66010;52.084;5.412;2023-09-30T06:21:20;13.73;;;6.22;;
65924;SDS011;66010;52.084;5.412;2023-09-30T06:23:47;12.50;;;6.82;;
65924;SDS011;66010;52.084;5.412;2023-09-30T06:28:44;15.55;;;5.78;;
65924;SDS011;66010;52.084;5.412;2023-09-30T06:31:11;12.25;;;5.57;;
65924;SDS011;66010;52.084;5.412;2023-09-30T06:33:38;12.00;;;5.20;;
65924;SDS011;66010;52.084;5.412;2023-09-30T06:36:09;13.43;;;6.45;;
65924;SDS011;66010;52.084;5.412;2023-09-30T06:38:37;17.08;;;6.88;;
65924;SDS011;66010;52.084;5.412;2023-09-30T06:41:04;13.68;;;5.80;;
65924;SDS011;66010;52.084;5.412;2023-09-30T06:43:31;12.30;;;4.70;;
65924;SDS011;66010;52.084;5.412;2023-09-30T06:45:59;13.02;;;6.15;;
65924;SDS011;66010;52.084;5.412;2023-09-30T06:48:26;12.95;;;6.65;;
65924;SDS011;66010;52.084;5.412;2023-09-30T06:50:53;11.07;;;4.82;;
65924;SDS011;66010;52.084;5.412;2023-09-30T06:53:20;13.35;;;6.00;;
65924;SDS011;66010;52.084;5.412;2023-09-30T06:55:50;12.35;;;5.95;;
65924;SDS011;66010;52.084;5.412;2023-09-30T06:58:17;12.82;;;5.63;;
65924;SDS011;66010;52.084;5.412;2023-09-30T07:00:49;12.88;;;5.30;;
65924;SDS011;66010;52.084;5.412;2023-09-30T07:03:16;12.18;;;5.60;;
65924;SDS011;66010;52.084;5.412;2023-09-30T07:08:09;17.15;;;7.90;;
65924;SDS011;66010;52.084;5.412;2023-09-30T07:10:36;13.07;;;4.82;;
65924;SDS011;66010;52.084;5.412;2023-09-30T07:13:03;13.45;;;5.85;;
65924;SDS011;66010;52.084;5.412;2023-09-30T07:15:30;12.63;;;5.43;;
65924;SDS011;66010;52.084;5.412;2023-09-30T07:17:56;15.63;;;6.90;;
65924;SDS011;66010;52.084;5.412;2023-09-30T07:20:23;15.23;;;7.28;;
65924;SDS011;66010;52.084;5.412;2023-09-30T07:22:50;14.30;;;7.43;;
65924;SDS011;66010;52.084;5.412;2023-09-30T07:25:36;16.88;;;8.30;;
65924;SDS011;66010;52.084;5.412;2023-09-30T07:28:03;17.83;;;7.97;;
65924;SDS011;66010;52.084;5.412;2023-09-30T07:30:30;17.02;;;8.45;;
65924;SDS011;66010;52.084;5.412;2023-09-30T07:32:56;15.85;;;6.03;;
65924;SDS011;66010;52.084;5.412;2023-09-30T07:35:23;17.45;;;6.95;;
65924;SDS011;66010;52.084;5.412;2023-09-30T07:37:50;14.25;;;6.80;;
65924;SDS011;66010;52.084;5.412;2023-09-30T07:40:19;15.02;;;6.40;;
65924;SDS011;66010;52.084;5.412;2023-09-30T07:42:47;17.55;;;7.80;;
65924;SDS011;66010;52.084;5.412;2023-09-30T07:45:14;14.05;;;6.40;;
65924;SDS011;66010;52.084;5.412;2023-09-30T07:47:44;13.13;;;6.88;;
65924;SDS011;66010;52.084;5.412;2023-09-30T07:50:10;13.40;;;5.65;;
65924;SDS011;66010;52.084;5.412;2023-09-30T07:52:41;17.33;;;7.80;;
65924;SDS011;66010;52.084;5.412;2023-09-30T07:55:09;13.23;;;6.35;;
65924;SDS011;66010;52.084;5.412;2023-09-30T07:57:36;14.35;;;6.05;;
65924;SDS011;66010;52.084;5.412;2023-09-30T08:00:03;14.00;;;7.20;;
65924;SDS011;66010;52.084;5.412;2023-09-30T08:02:35;14.60;;;7.72;;
65924;SDS011;66010;52.084;5.412;2023-09-30T08:05:03;15.60;;;8.13;;
65924;SDS011;66010;52.084;5.412;2023-09-30T08:07:30;14.85;;;6.75;;
65924;SDS011;66010;52.084;5.412;2023-09-30T08:09:56;15.50;;;7.25;;
65924;SDS011;66010;52.084;5.412;2023-09-30T08:12:23;16.13;;;7.82;;
65924;SDS011;66010;52.084;5.412;2023-09-30T08:14:50;13.70;;;6.45;;
65924;SDS011;66010;52.084;5.412;2023-09-30T08:17:17;14.68;;;6.60;;
65924;SDS011;66010;52.084;5.412;2023-09-30T08:19:44;16.48;;;6.85;;
65924;SDS011;66010;52.084;5.412;2023-09-30T08:22:11;15.50;;;7.28;;
65924;SDS011;66010;52.084;5.412;2023-09-30T08:24:37;15.18;;;6.68;;
65924;SDS011;66010;52.084;5.412;2023-09-30T08:27:04;14.38;;;6.85;;
65924;SDS011;66010;52.084;5.412;2023-09-30T08:29:34;15.02;;;6.82;;
65924;SDS011;66010;52.084;5.412;2023-09-30T08:32:03;14.05;;;6.22;;
65924;SDS011;66010;52.084;5.412;2023-09-30T08:34:30;13.40;;;6.25;;
65924;SDS011;66010;52.084;5.412;2023-09-30T08:36:57;13.75;;;6.50;;
65924;SDS011;66010;52.084;5.412;2023-09-30T08:39:23;13.00;;;6.25;;
65924;SDS011;66010;52.084;5.412;2023-09-30T08:41:50;12.98;;;6.40;;
65924;SDS011;66010;52.084;5.412;2023-09-30T08:44:17;12.77;;;6.65;;
65924;SDS011;66010;52.084;5.412;2023-09-30T08:46:43;14.75;;;6.40;;
65924;SDS011;66010;52.084;5.412;2023-09-30T08:49:10;13.40;;;6.15;;
65924;SDS011;66010;52.084;5.412;2023-09-30T08:51:37;16.58;;;6.07;;
65924;SDS011;66010;52.084;5.412;2023-09-30T08:54:05;17.35;;;8.30;;
65924;SDS011;66010;52.084;5.412;2023-09-30T08:56:31;18.40;;;7.55;;
65924;SDS011;66010;52.084;5.412;2023-09-30T08:59:02;16.08;;;7.38;;
65924;SDS011;66010;52.084;5.412;2023-09-30T09:01:30;14.93;;;7.32;;
65924;SDS011;66010;52.084;5.412;2023-09-30T09:03:57;15.40;;;7.85;;
65924;SDS011;66010;52.084;5.412;2023-09-30T09:06:25;17.98;;;7.70;;
65924;SDS011;66010;52.084;5.412;2023-09-30T09:08:51;14.75;;;6.97;;
65924;SDS011;66010;52.084;5.412;2023-09-30T09:11:18;14.18;;;7.43;;
65924;SDS011;66010;52.084;5.412;2023-09-30T09:13:46;16.23;;;8.52;;
65924;SDS011;66010;52.084;5.412;2023-09-30T09:16:16;14.38;;;7.38;;
65924;SDS011;66010;52.084;5.412;2023-09-30T09:18:44;17.48;;;7.43;;
65924;SDS011;66010;52.084;5.412;2023-09-30T09:21:15;16.20;;;7.57;;
65924;SDS011;66010;52.084;5.412;2023-09-30T09:23:46;18.10;;;8.02;;
65924;SDS011;66010;52.084;5.412;2023-09-30T09:26:28;14.60;;;7.82;;
65924;SDS011;66010;52.084;5.412;2023-09-30T09:29:01;18.00;;;7.60;;
65924;SDS011;66010;52.084;5.412;2023-09-30T09:31:28;18.83;;;7.15;;
65924;SDS011;66010;52.084;5.412;2023-09-30T09:36:22;16.02;;;7.55;;
65924;SDS011;66010;52.084;5.412;2023-09-30T09:39:04;14.68;;;6.72;;
65924;SDS011;66010;52.084;5.412;2023-09-30T09:41:30;12.98;;;5.97;;
65924;SDS011;66010;52.084;5.412;2023-09-30T09:43:57;13.32;;;6.82;;
65924;SDS011;66010;52.084;5.412;2023-09-30T09:46:25;12.63;;;5.82;;
65924;SDS011;66010;52.084;5.412;2023-09-30T09:48:53;16.08;;;6.65;;
65924;SDS011;66010;52.084;5.412;2023-09-30T09:51:21;13.07;;;6.45;;
65924;SDS011;66010;52.084;5.412;2023-09-30T09:53:48;18.52;;;6.20;;
65924;SDS011;66010;52.084;5.412;2023-09-30T09:56:16;13.27;;;4.15;;
65924;SDS011;66010;52.084;5.412;2023-09-30T09:58:43;16.95;;;5.93;;
65924;SDS011;66010;52.084;5.412;2023-09-30T10:01:10;12.18;;;4.93;;
65924;SDS011;66010;52.084;5.412;2023-09-30T10:03:38;11.88;;;4.25;;
65924;SDS011;66010;52.084;5.412;2023-09-30T10:06:05;13.85;;;4.90;;
65924;SDS011;66010;52.084;5.412;2023-09-30T10:08:33;13.05;;;5.15;;
65924;SDS011;66010;52.084;5.412;2023-09-30T10:11:01;14.18;;;4.82;;
65924;SDS011;66010;52.084;5.412;2023-09-30T10:21:25;12.25;;;3.95;;
65924;SDS011;66010;52.084;5.412;2023-09-30T10:23:52;12.98;;;4.72;;
65924;SDS011;66010;52.084;5.412;2023-09-30T10:26:38;12.75;;;4.13;;
65924;SDS011;66010;52.084;5.412;2023-09-30T10:29:08;11.50;;;4.10;;
65924;SDS011;66010;52.084;5.412;2023-09-30T10:31:35;11.05;;;4.57;;
65924;SDS011;66010;52.084;5.412;2023-09-30T10:34:19;12.68;;;4.20;;
65924;SDS011;66010;52.084;5.412;2023-09-30T10:36:46;13.75;;;4.10;;
65924;SDS011;66010;52.084;5.412;2023-09-30T10:39:13;12.63;;;4.45;;
65924;SDS011;66010;52.084;5.412;2023-09-30T10:46:48;12.02;;;4.03;;
65924;SDS011;66010;52.084;5.412;2023-09-30T10:49:29;9.73;;;3.13;;
65924;SDS011;66010;52.084;5.412;2023-09-30T10:51:58;12.77;;;3.90;;
65924;SDS011;66010;52.084;5.412;2023-09-30T10:54:28;9.55;;;3.40;;
65924;SDS011;66010;52.084;5.412;2023-09-30T10:56:55;10.15;;;3.60;;
65924;SDS011;66010;52.084;5.412;2023-09-30T10:59:22;11.05;;;3.53;;
65924;SDS011;66010;52.084;5.412;2023-09-30T11:01:50;11.10;;;3.80;;
65924;SDS011;66010;52.084;5.412;2023-09-30T11:04:17;9.88;;;3.47;;
65924;SDS011;66010;52.084;5.412;2023-09-30T11:06:45;10.10;;;2.92;;
65924;SDS011;66010;52.084;5.412;2023-09-30T11:09:15;11.80;;;3.50;;
65924;SDS011;66010;52.084;5.412;2023-09-30T11:11:44;10.27;;;3.25;;
65924;SDS011;66010;52.084;5.412;2023-09-30T11:14:28;11.40;;;3.55;;
65924;SDS011;66010;52.084;5.412;2023-09-30T11:16:57;10.70;;;2.92;;
65924;SDS011;66010;52.084;5.412;2023-09-30T11:19:23;11.15;;;2.95;;
65924;SDS011;66010;52.084;5.412;2023-09-30T11:21:51;10.05;;;3.00;;
65924;SDS011;66010;52.084;5.412;2023-09-30T11:24:18;10.55;;;3.40;;
65924;SDS011;66010;52.084;5.412;2023-09-30T11:26:45;11.75;;;2.95;;
65924;SDS011;66010;52.084;5.412;2023-09-30T11:29:15;9.65;;;3.00;;
65924;SDS011;66010;52.084;5.412;2023-09-30T11:31:46;11.02;;;3.38;;
65924;SDS011;66010;52.084;5.412;2023-09-30T11:34:17;9.15;;;2.85;;
65924;SDS011;66010;52.084;5.412;2023-09-30T11:36:49;9.38;;;2.60;;
65924;SDS011;66010;52.084;5.412;2023-09-30T11:39:26;9.48;;;2.40;;
65924;SDS011;66010;52.084;5.412;2023-09-30T11:41:54;7.85;;;2.45;;
65924;SDS011;66010;52.084;5.412;2023-09-30T11:44:24;10.60;;;2.50;;
65924;SDS011;66010;52.084;5.412;2023-09-30T11:49:33;9.63;;;2.58;;
65924;SDS011;66010;52.084;5.412;2023-09-30T11:52:06;9.70;;;2.45;;
65924;SDS011;66010;52.084;5.412;2023-09-30T11:54:35;8.73;;;2.60;;
65924;SDS011;66010;52.084;5.412;2023-09-30T11:57:06;9.13;;;2.75;;
65924;SDS011;66010;52.084;5.412;2023-09-30T11:59:36;11.00;;;3.33;;
65924;SDS011;66010;52.084;5.412;2023-09-30T12:02:03;9.02;;;3.05;;
65924;SDS011;66010;52.084;5.412;2023-09-30T12:04:41;10.13;;;3.47;;
65924;SDS011;66010;52.084;5.412;2023-09-30T12:07:08;10.82;;;3.40;;
65924;SDS011;66010;52.084;5.412;2023-09-30T12:09:34;12.18;;;4.00;;
65924;SDS011;66010;52.084;5.412;2023-09-30T12:12:04;11.95;;;3.47;;
65924;SDS011;66010;52.084;5.412;2023-09-30T12:14:30;10.93;;;3.33;;
65924;SDS011;66010;52.084;5.412;2023-09-30T12:16:57;11.43;;;3.53;;
65924;SDS011;66010;52.084;5.412;2023-09-30T12:19:24;10.27;;;4.00;;
65924;SDS011;66010;52.084;5.412;2023-09-30T12:21:52;11.88;;;3.53;;
65924;SDS011;66010;52.084;5.412;2023-09-30T12:24:19;10.43;;;3.08;;
65924;SDS011;66010;52.084;5.412;2023-09-30T12:26:48;9.88;;;3.03;;
65924;SDS011;66010;52.084;5.412;2023-09-30T12:29:16;13.80;;;2.80;;
65924;SDS011;66010;52.084;5.412;2023-09-30T12:31:44;11.10;;;2.70;;
65924;SDS011;66010;52.084;5.412;2023-09-30T12:34:19;9.27;;;2.30;;
65924;SDS011;66010;52.084;5.412;2023-09-30T12:36:46;9.85;;;2.80;;
65924;SDS011;66010;52.084;5.412;2023-09-30T12:39:14;10.85;;;2.40;;
65924;SDS011;66010;52.084;5.412;2023-09-30T12:41:43;11.85;;;2.58;;
65924;SDS011;66010;52.084;5.412;2023-09-30T12:44:12;10.68;;;2.40;;
65924;SDS011;66010;52.084;5.412;2023-09-30T12:46:39;7.32;;;2.40;;
65924;SDS011;66010;52.084;5.412;2023-09-30T12:49:06;11.80;;;3.00;;
65924;SDS011;66010;52.084;5.412;2023-09-30T12:51:33;7.55;;;2.20;;
65924;SDS011;66010;52.084;5.412;2023-09-30T12:54:00;11.45;;;2.50;;
65924;SDS011;66010;52.084;5.412;2023-09-30T12:56:27;10.38;;;2.50;;
65924;SDS011;66010;52.084;5.412;2023-09-30T12:58:57;10.40;;;2.75;;
65924;SDS011;66010;52.084;5.412;2023-09-30T13:03:50;10.40;;;2.25;;
65924;SDS011;66010;52.084;5.412;2023-09-30T13:08:45;9.65;;;2.25;;
65924;SDS011;66010;52.084;5.412;2023-09-30T13:11:12;9.60;;;2.40;;
65924;SDS011;66010;52.084;5.412;2023-09-30T13:13:39;10.15;;;2.53;;
65924;SDS011;66010;52.084;5.412;2023-09-30T13:16:09;8.85;;;2.50;;
65924;SDS011;66010;52.084;5.412;2023-09-30T13:18:36;8.68;;;2.33;;
65924;SDS011;66010;52.084;5.412;2023-09-30T13:21:03;11.18;;;3.13;;
65924;SDS011;66010;52.084;5.412;2023-09-30T13:23:32;9.23;;;2.60;;
65924;SDS011;66010;52.084;5.412;2023-09-30T13:25:59;12.30;;;2.67;;
65924;SDS011;66010;52.084;5.412;2023-09-30T13:28:27;8.98;;;2.35;;
65924;SDS011;66010;52.084;5.412;2023-09-30T13:30:57;11.52;;;2.75;;
65924;SDS011;66010;52.084;5.412;2023-09-30T13:33:24;8.02;;;2.10;;
65924;SDS011;66010;52.084;5.412;2023-09-30T13:35:54;7.53;;;2.00;;
65924;SDS011;66010;52.084;5.412;2023-09-30T13:38:22;7.53;;;2.20;;
65924;SDS011;66010;52.084;5.412;2023-09-30T13:40:49;7.93;;;2.22;;
65924;SDS011;66010;52.084;5.412;2023-09-30T13:43:15;6.32;;;1.98;;
65924;SDS011;66010;52.084;5.412;2023-09-30T13:45:42;8.80;;;2.15;;
65924;SDS011;66010;52.084;5.412;2023-09-30T13:48:08;7.85;;;2.22;;
65924;SDS011;66010;52.084;5.412;2023-09-30T13:50:35;6.68;;;2.17;;
65924;SDS011;66010;52.084;5.412;2023-09-30T13:53:02;7.72;;;1.92;;
65924;SDS011;66010;52.084;5.412;2023-09-30T13:55:29;7.07;;;2.00;;
65924;SDS011;66010;52.084;5.412;2023-09-30T13:57:56;6.53;;;1.77;;
65924;SDS011;66010;52.084;5.412;2023-09-30T14:00:23;6.93;;;1.92;;
65924;SDS011;66010;52.084;5.412;2023-09-30T14:02:49;7.22;;;1.92;;
65924;SDS011;66010;52.084;5.412;2023-09-30T14:05:18;6.65;;;2.08;;
65924;SDS011;66010;52.084;5.412;2023-09-30T14:07:45;6.40;;;2.08;;
65924;SDS011;66010;52.084;5.412;2023-09-30T14:10:11;6.30;;;2.00;;
65924;SDS011;66010;52.084;5.412;2023-09-30T14:12:38;6.03;;;2.20;;
65924;SDS011;66010;52.084;5.412;2023-09-30T14:15:06;6.88;;;2.15;;
65924;SDS011;66010;52.084;5.412;2023-09-30T14:17:33;6.75;;;2.00;;
65924;SDS011;66010;52.084;5.412;2023-09-30T14:20:01;5.53;;;1.95;;
65924;SDS011;66010;52.084;5.412;2023-09-30T14:22:31;6.25;;;1.90;;
65924;SDS011;66010;52.084;5.412;2023-09-30T14:24:58;6.13;;;2.10;;
65924;SDS011;66010;52.084;5.412;2023-09-30T14:27:24;5.95;;;1.88;;
65924;SDS011;66010;52.084;5.412;2023-09-30T14:29:52;5.32;;;2.05;;
65924;SDS011;66010;52.084;5.412;2023-09-30T14:32:19;5.78;;;2.08;;
65924;SDS011;66010;52.084;5.412;2023-09-30T14:34:45;5.85;;;1.85;;
65924;SDS011;66010;52.084;5.412;2023-09-30T14:37:12;7.10;;;2.10;;
65924;SDS011;66010;52.084;5.412;2023-09-30T14:39:40;6.00;;;1.98;;
65924;SDS011;66010;52.084;5.412;2023-09-30T14:42:06;5.38;;;1.70;;
65924;SDS011;66010;52.084;5.412;2023-09-30T14:44:33;6.20;;;1.95;;
65924;SDS011;66010;52.084;5.412;2023-09-30T14:46:59;6.35;;;2.08;;
65924;SDS011;66010;52.084;5.412;2023-09-30T14:49:26;5.30;;;1.63;;
65924;SDS011;66010;52.084;5.412;2023-09-30T14:51:53;5.70;;;2.00;;
65924;SDS011;66010;52.084;5.412;2023-09-30T14:54:20;6.10;;;2.03;;
65924;SDS011;66010;52.084;5.412;2023-09-30T14:56:46;6.07;;;1.90;;
65924;SDS011;66010;52.084;5.412;2023-09-30T14:59:13;6.70;;;2.30;;
65924;SDS011;66010;52.084;5.412;2023-09-30T15:01:40;4.50;;;1.80;;
65924;SDS011;66010;52.084;5.412;2023-09-30T15:04:07;6.20;;;2.00;;
65924;SDS011;66010;52.084;5.412;2023-09-30T15:06:36;6.97;;;1.85;;
65924;SDS011;66010;52.084;5.412;2023-09-30T15:09:03;5.95;;;2.20;;
65924;SDS011;66010;52.084;5.412;2023-09-30T15:11:31;5.68;;;1.70;;
65924;SDS011;66010;52.084;5.412;2023-09-30T15:13:57;6.32;;;1.88;;
65924;SDS011;66010;52.084;5.412;2023-09-30T15:16:24;5.28;;;1.92;;
65924;SDS011;66010;52.084;5.412;2023-09-30T15:18:52;6.63;;;1.90;;